sensor_id;sensor_type;location;lat;lon;timestamp;temperature;humidity
25732;DHT22;13585;50.864;4.406;2022-12-18T00:00:32;12.40;55.50
25732;DHT22;13585;50.864;4.406;2022-12-18T00:03:02;12.40;55.60
25732;DHT22;13585;50.864;4.406;2022-12-18T00:05:30;12.40;55.40
25732;DHT22;13585;50.864;4.406;2022-12-18T00:08:08;12.50;55.50
25732;DHT22;13585;50.864;4.406;2022-12-18T00:10:33;12.40;55.50
25732;DHT22;13585;50.864;4.406;2022-12-18T00:13:02;12.40;55.50
25732;DHT22;13585;50.864;4.406;2022-12-18T00:15:32;12.40;55.50
25732;DHT22;13585;50.864;4.406;2022-12-18T00:18:12;12.40;55.40
25732;DHT22;13585;50.864;4.406;2022-12-18T00:20:39;12.40;55.50
25732;DHT22;13585;50.864;4.406;2022-12-18T00:23:07;12.30;55.30
25732;DHT22;13585;50.864;4.406;2022-12-18T00:25:40;12.40;55.30
25732;DHT22;13585;50.864;4.406;2022-12-18T00:28:57;12.40;55.30
25732;DHT22;13585;50.864;4.406;2022-12-18T00:31:38;12.40;55.30
25732;DHT22;13585;50.864;4.406;2022-12-18T00:34:20;12.40;55.20
25732;DHT22;13585;50.864;4.406;2022-12-18T00:36:53;12.40;55.20
25732;DHT22;13585;50.864;4.406;2022-12-18T00:39:19;12.40;55.30
25732;DHT22;13585;50.864;4.406;2022-12-18T00:41:49;12.40;55.30
25732;DHT22;13585;50.864;4.406;2022-12-18T00:44:33;12.30;55.20
25732;DHT22;13585;50.864;4.406;2022-12-18T00:47:01;12.40;55.20
25732;DHT22;13585;50.864;4.406;2022-12-18T00:49:27;12.30;55.20
25732;DHT22;13585;50.864;4.406;2022-12-18T00:52:46;12.30;55.10
25732;DHT22;13585;50.864;4.406;2022-12-18T01:03:35;12.30;55.00
25732;DHT22;13585;50.864;4.406;2022-12-18T01:06:12;12.20;55.00
25732;DHT22;13585;50.864;4.406;2022-12-18T01:08:38;12.30;55.00
25732;DHT22;13585;50.864;4.406;2022-12-18T01:11:15;12.30;55.10
25732;DHT22;13585;50.864;4.406;2022-12-18T01:14:34;12.30;54.90
25732;DHT22;13585;50.864;4.406;2022-12-18T01:17:02;12.20;54.90
25732;DHT22;13585;50.864;4.406;2022-12-18T01:19:31;12.40;55.00
25732;DHT22;13585;50.864;4.406;2022-12-18T01:22:19;12.20;54.80
25732;DHT22;13585;50.864;4.406;2022-12-18T01:35:08;12.20;54.70
25732;DHT22;13585;50.864;4.406;2022-12-18T01:37:57;12.30;54.80
25732;DHT22;13585;50.864;4.406;2022-12-18T01:40:23;12.30;54.70
25732;DHT22;13585;50.864;4.406;2022-12-18T01:42:52;12.30;54.80
25732;DHT22;13585;50.864;4.406;2022-12-18T01:45:48;12.30;54.70
25732;DHT22;13585;50.864;4.406;2022-12-18T01:48:23;12.20;54.70
25732;DHT22;13585;50.864;4.406;2022-12-18T01:50:55;12.20;54.70
25732;DHT22;13585;50.864;4.406;2022-12-18T01:53:45;12.30;54.70
25732;DHT22;13585;50.864;4.406;2022-12-18T01:57:13;12.20;54.60
25732;DHT22;13585;50.864;4.406;2022-12-18T02:00:26;12.30;54.60
25732;DHT22;13585;50.864;4.406;2022-12-18T02:34:18;12.20;54.40
25732;DHT22;13585;50.864;4.406;2022-12-18T02:37:02;12.20;54.30
25732;DHT22;13585;50.864;4.406;2022-12-18T02:39:38;12.10;54.40
25732;DHT22;13585;50.864;4.406;2022-12-18T02:53:38;12.10;54.20
25732;DHT22;13585;50.864;4.406;2022-12-18T02:56:47;12.10;54.20
25732;DHT22;13585;50.864;4.406;2022-12-18T02:59:40;12.10;54.20
25732;DHT22;13585;50.864;4.406;2022-12-18T03:05:57;12.10;54.10
25732;DHT22;13585;50.864;4.406;2022-12-18T03:08:38;12.10;54.10
25732;DHT22;13585;50.864;4.406;2022-12-18T03:11:17;12.00;54.70
25732;DHT22;13585;50.864;4.406;2022-12-18T03:14:04;12.10;54.20
25732;DHT22;13585;50.864;4.406;2022-12-18T03:16:41;12.10;54.10
25732;DHT22;13585;50.864;4.406;2022-12-18T03:19:13;12.10;54.10
25732;DHT22;13585;50.864;4.406;2022-12-18T03:22:15;12.10;54.00
25732;DHT22;13585;50.864;4.406;2022-12-18T03:24:46;12.10;54.00
25732;DHT22;13585;50.864;4.406;2022-12-18T03:27:15;12.10;54.00
25732;DHT22;13585;50.864;4.406;2022-12-18T03:29:56;12.10;54.00
25732;DHT22;13585;50.864;4.406;2022-12-18T03:35:52;12.10;53.90
25732;DHT22;13585;50.864;4.406;2022-12-18T03:55:24;12.10;53.80
25732;DHT22;13585;50.864;4.406;2022-12-18T03:58:21;12.10;53.80
25732;DHT22;13585;50.864;4.406;2022-12-18T04:01:15;12.00;53.70
25732;DHT22;13585;50.864;4.406;2022-12-18T04:03:43;12.00;53.70
25732;DHT22;13585;50.864;4.406;2022-12-18T04:06:23;12.10;53.70
25732;DHT22;13585;50.864;4.406;2022-12-18T04:08:57;12.10;53.80
25732;DHT22;13585;50.864;4.406;2022-12-18T04:11:24;12.10;53.70
25732;DHT22;13585;50.864;4.406;2022-12-18T04:13:59;12.10;53.70
25732;DHT22;13585;50.864;4.406;2022-12-18T04:16:29;12.10;53.80
25732;DHT22;13585;50.864;4.406;2022-12-18T04:18:59;12.00;53.70
25732;DHT22;13585;50.864;4.406;2022-12-18T04:21:31;12.10;53.60
25732;DHT22;13585;50.864;4.406;2022-12-18T04:24:00;12.00;53.60
25732;DHT22;13585;50.864;4.406;2022-12-18T04:26:28;12.10;53.60
25732;DHT22;13585;50.864;4.406;2022-12-18T04:29:01;12.00;53.60
25732;DHT22;13585;50.864;4.406;2022-12-18T04:31:33;12.00;53.50
25732;DHT22;13585;50.864;4.406;2022-12-18T04:34:55;12.00;53.40
25732;DHT22;13585;50.864;4.406;2022-12-18T04:37:38;12.00;53.40
25732;DHT22;13585;50.864;4.406;2022-12-18T04:40:17;12.10;53.50
25732;DHT22;13585;50.864;4.406;2022-12-18T04:42:47;12.00;53.50
25732;DHT22;13585;50.864;4.406;2022-12-18T04:45:24;11.90;53.40
25732;DHT22;13585;50.864;4.406;2022-12-18T04:48:23;12.10;53.50
25732;DHT22;13585;50.864;4.406;2022-12-18T04:51:14;12.00;53.40
25732;DHT22;13585;50.864;4.406;2022-12-18T04:53:52;12.00;53.30
25732;DHT22;13585;50.864;4.406;2022-12-18T04:56:22;12.00;53.30
25732;DHT22;13585;50.864;4.406;2022-12-18T04:58:56;12.10;53.40
25732;DHT22;13585;50.864;4.406;2022-12-18T05:01:24;11.90;53.40
25732;DHT22;13585;50.864;4.406;2022-12-18T05:03:53;12.00;53.30
25732;DHT22;13585;50.864;4.406;2022-12-18T05:06:20;12.00;53.40
25732;DHT22;13585;50.864;4.406;2022-12-18T05:08:46;11.90;53.30
25732;DHT22;13585;50.864;4.406;2022-12-18T05:11:15;12.00;53.30
25732;DHT22;13585;50.864;4.406;2022-12-18T05:13:46;11.90;53.30
25732;DHT22;13585;50.864;4.406;2022-12-18T05:16:15;12.00;53.20
25732;DHT22;13585;50.864;4.406;2022-12-18T05:18:41;12.00;53.30
25732;DHT22;13585;50.864;4.406;2022-12-18T05:21:08;12.00;53.20
25732;DHT22;13585;50.864;4.406;2022-12-18T05:23:36;12.00;53.20
25732;DHT22;13585;50.864;4.406;2022-12-18T05:26:08;12.00;53.10
25732;DHT22;13585;50.864;4.406;2022-12-18T05:28:37;12.00;53.10
25732;DHT22;13585;50.864;4.406;2022-12-18T05:36:15;11.90;53.00
25732;DHT22;13585;50.864;4.406;2022-12-18T05:38:42;11.90;53.00
25732;DHT22;13585;50.864;4.406;2022-12-18T05:41:08;12.00;53.10
25732;DHT22;13585;50.864;4.406;2022-12-18T05:43:39;12.00;53.10
25732;DHT22;13585;50.864;4.406;2022-12-18T05:46:29;11.90;53.00
25732;DHT22;13585;50.864;4.406;2022-12-18T05:48:58;12.00;53.00
25732;DHT22;13585;50.864;4.406;2022-12-18T05:51:39;11.90;52.90
25732;DHT22;13585;50.864;4.406;2022-12-18T05:54:12;11.90;53.00
25732;DHT22;13585;50.864;4.406;2022-12-18T05:56:40;11.90;52.90
25732;DHT22;13585;50.864;4.406;2022-12-18T05:59:26;12.00;53.00
25732;DHT22;13585;50.864;4.406;2022-12-18T06:01:58;12.00;53.00
25732;DHT22;13585;50.864;4.406;2022-12-18T06:08:41;11.90;52.80
25732;DHT22;13585;50.864;4.406;2022-12-18T06:11:21;11.80;52.70
25732;DHT22;13585;50.864;4.406;2022-12-18T06:21:00;11.80;52.80
25732;DHT22;13585;50.864;4.406;2022-12-18T06:23:27;11.80;52.80
25732;DHT22;13585;50.864;4.406;2022-12-18T06:25:56;11.90;52.90
25732;DHT22;13585;50.864;4.406;2022-12-18T06:28:39;11.90;52.90
25732;DHT22;13585;50.864;4.406;2022-12-18T06:31:06;11.80;52.80
25732;DHT22;13585;50.864;4.406;2022-12-18T06:33:34;11.80;52.80
25732;DHT22;13585;50.864;4.406;2022-12-18T06:36:02;11.80;52.80
25732;DHT22;13585;50.864;4.406;2022-12-18T06:38:32;11.80;52.80
25732;DHT22;13585;50.864;4.406;2022-12-18T06:41:00;11.80;52.70
25732;DHT22;13585;50.864;4.406;2022-12-18T06:43:27;11.80;52.80
25732;DHT22;13585;50.864;4.406;2022-12-18T06:45:59;11.80;52.80
25732;DHT22;13585;50.864;4.406;2022-12-18T06:48:37;11.80;52.70
25732;DHT22;13585;50.864;4.406;2022-12-18T06:51:04;11.80;52.50
25732;DHT22;13585;50.864;4.406;2022-12-18T06:53:43;11.90;52.50
25732;DHT22;13585;50.864;4.406;2022-12-18T06:57:07;11.90;52.40
25732;DHT22;13585;50.864;4.406;2022-12-18T07:06:24;11.80;52.00
25732;DHT22;13585;50.864;4.406;2022-12-18T07:09:38;11.90;51.90
25732;DHT22;13585;50.864;4.406;2022-12-18T07:12:34;11.90;51.80
25732;DHT22;13585;50.864;4.406;2022-12-18T07:25:25;11.90;51.70
25732;DHT22;13585;50.864;4.406;2022-12-18T07:45:10;12.00;51.90
25732;DHT22;13585;50.864;4.406;2022-12-18T07:47:46;12.10;51.90
25732;DHT22;13585;50.864;4.406;2022-12-18T07:50:13;12.00;51.90
25732;DHT22;13585;50.864;4.406;2022-12-18T07:52:50;12.00;52.00
25732;DHT22;13585;50.864;4.406;2022-12-18T07:55:37;12.00;52.00
25732;DHT22;13585;50.864;4.406;2022-12-18T07:58:08;12.10;52.00
25732;DHT22;13585;50.864;4.406;2022-12-18T08:00:35;12.10;52.20
25732;DHT22;13585;50.864;4.406;2022-12-18T08:03:05;12.10;52.10
25732;DHT22;13585;50.864;4.406;2022-12-18T08:05:31;12.10;52.10
25732;DHT22;13585;50.864;4.406;2022-12-18T08:12:15;12.10;52.20
25732;DHT22;13585;50.864;4.406;2022-12-18T08:18:06;12.10;52.20
25732;DHT22;13585;50.864;4.406;2022-12-18T08:20:35;12.10;52.30
25732;DHT22;13585;50.864;4.406;2022-12-18T08:23:09;12.10;52.20
25732;DHT22;13585;50.864;4.406;2022-12-18T08:25:36;12.10;52.30
25732;DHT22;13585;50.864;4.406;2022-12-18T08:28:04;12.10;52.30
25732;DHT22;13585;50.864;4.406;2022-12-18T08:30:31;12.10;52.30
25732;DHT22;13585;50.864;4.406;2022-12-18T08:33:07;12.20;52.40
25732;DHT22;13585;50.864;4.406;2022-12-18T08:46:41;12.20;52.40
25732;DHT22;13585;50.864;4.406;2022-12-18T08:49:39;12.20;52.50
25732;DHT22;13585;50.864;4.406;2022-12-18T08:52:15;12.30;52.60
25732;DHT22;13585;50.864;4.406;2022-12-18T08:55:04;12.30;52.50
25732;DHT22;13585;50.864;4.406;2022-12-18T08:57:43;12.20;52.50
25732;DHT22;13585;50.864;4.406;2022-12-18T09:00:24;12.20;52.50
25732;DHT22;13585;50.864;4.406;2022-12-18T09:03:25;12.30;52.50
25732;DHT22;13585;50.864;4.406;2022-12-18T09:06:19;12.20;52.50
25732;DHT22;13585;50.864;4.406;2022-12-18T09:09:09;12.30;52.60
25732;DHT22;13585;50.864;4.406;2022-12-18T09:11:37;12.30;52.60
25732;DHT22;13585;50.864;4.406;2022-12-18T09:14:03;12.30;52.60
25732;DHT22;13585;50.864;4.406;2022-12-18T09:16:34;12.30;52.60
25732;DHT22;13585;50.864;4.406;2022-12-18T09:19:09;12.30;52.70
25732;DHT22;13585;50.864;4.406;2022-12-18T09:22:03;12.40;52.70
25732;DHT22;13585;50.864;4.406;2022-12-18T09:25:02;12.30;52.70
25732;DHT22;13585;50.864;4.406;2022-12-18T09:28:12;12.20;52.60
25732;DHT22;13585;50.864;4.406;2022-12-18T09:30:47;12.30;52.60
25732;DHT22;13585;50.864;4.406;2022-12-18T09:33:28;12.30;52.70
25732;DHT22;13585;50.864;4.406;2022-12-18T09:36:39;12.40;52.70
25732;DHT22;13585;50.864;4.406;2022-12-18T09:39:15;12.40;52.70
25732;DHT22;13585;50.864;4.406;2022-12-18T09:42:21;12.40;52.80
25732;DHT22;13585;50.864;4.406;2022-12-18T09:44:59;12.30;52.70
25732;DHT22;13585;50.864;4.406;2022-12-18T09:48:15;12.40;52.70
25732;DHT22;13585;50.864;4.406;2022-12-18T10:20:37;12.40;52.70
25732;DHT22;13585;50.864;4.406;2022-12-18T10:23:45;12.50;52.80
25732;DHT22;13585;50.864;4.406;2022-12-18T10:26:45;12.40;52.70
25732;DHT22;13585;50.864;4.406;2022-12-18T10:29:14;12.40;52.70
25732;DHT22;13585;50.864;4.406;2022-12-18T10:31:58;12.40;52.70
25732;DHT22;13585;50.864;4.406;2022-12-18T10:34:39;12.40;52.80
25732;DHT22;13585;50.864;4.406;2022-12-18T10:37:18;12.30;52.70
25732;DHT22;13585;50.864;4.406;2022-12-18T10:40:30;12.30;52.70
25732;DHT22;13585;50.864;4.406;2022-12-18T10:51:09;12.40;52.80
25732;DHT22;13585;50.864;4.406;2022-12-18T10:53:41;12.40;52.90
25732;DHT22;13585;50.864;4.406;2022-12-18T10:56:12;12.30;52.70
25732;DHT22;13585;50.864;4.406;2022-12-18T10:58:40;12.40;52.90
25732;DHT22;13585;50.864;4.406;2022-12-18T11:01:11;12.30;52.90
25732;DHT22;13585;50.864;4.406;2022-12-18T11:03:44;12.30;52.80
25732;DHT22;13585;50.864;4.406;2022-12-18T11:06:11;12.40;52.80
25732;DHT22;13585;50.864;4.406;2022-12-18T11:12:37;12.50;52.90
25732;DHT22;13585;50.864;4.406;2022-12-18T11:15:30;12.30;52.80
25732;DHT22;13585;50.864;4.406;2022-12-18T15:13:53;12.80;55.60
25732;DHT22;13585;50.864;4.406;2022-12-18T15:16:26;12.80;55.60
25732;DHT22;13585;50.864;4.406;2022-12-18T15:29:59;12.80;55.60
25732;DHT22;13585;50.864;4.406;2022-12-18T15:36:25;12.90;55.70
25732;DHT22;13585;50.864;4.406;2022-12-18T15:39:37;12.90;55.70
25732;DHT22;13585;50.864;4.406;2022-12-18T15:42:33;12.90;55.70
25732;DHT22;13585;50.864;4.406;2022-12-18T15:45:18;12.90;55.70
25732;DHT22;13585;50.864;4.406;2022-12-18T15:47:53;12.90;55.70
25732;DHT22;13585;50.864;4.406;2022-12-18T15:50:22;12.90;55.70
25732;DHT22;13585;50.864;4.406;2022-12-18T15:52:58;12.90;55.70
25732;DHT22;13585;50.864;4.406;2022-12-18T16:14:31;12.90;55.50
25732;DHT22;13585;50.864;4.406;2022-12-18T16:19:42;13.00;55.50
25732;DHT22;13585;50.864;4.406;2022-12-18T16:22:27;13.00;55.60
25732;DHT22;13585;50.864;4.406;2022-12-18T16:40:41;13.00;55.50
25732;DHT22;13585;50.864;4.406;2022-12-18T17:06:56;13.10;55.40
25732;DHT22;13585;50.864;4.406;2022-12-18T17:09:57;13.10;55.40
25732;DHT22;13585;50.864;4.406;2022-12-18T17:14:58;13.10;55.40
25732;DHT22;13585;50.864;4.406;2022-12-18T17:17:25;13.10;55.40
25732;DHT22;13585;50.864;4.406;2022-12-18T17:20:10;13.10;55.40
25732;DHT22;13585;50.864;4.406;2022-12-18T17:22:39;13.10;55.50
25732;DHT22;13585;50.864;4.406;2022-12-18T17:25:05;13.10;55.40
25732;DHT22;13585;50.864;4.406;2022-12-18T17:27:49;13.20;55.50
25732;DHT22;13585;50.864;4.406;2022-12-18T17:30:57;13.20;55.50
25732;DHT22;13585;50.864;4.406;2022-12-18T17:33:29;13.20;55.50
25732;DHT22;13585;50.864;4.406;2022-12-18T17:35:57;13.20;55.40
25732;DHT22;13585;50.864;4.406;2022-12-18T17:48:58;13.20;55.40
25732;DHT22;13585;50.864;4.406;2022-12-18T17:51:24;13.20;55.40
25732;DHT22;13585;50.864;4.406;2022-12-18T17:53:50;13.20;55.40
25732;DHT22;13585;50.864;4.406;2022-12-18T17:56:23;13.20;55.40
25732;DHT22;13585;50.864;4.406;2022-12-18T17:59:03;13.20;55.40
25732;DHT22;13585;50.864;4.406;2022-12-18T18:01:49;13.20;55.40
25732;DHT22;13585;50.864;4.406;2022-12-18T18:04:21;13.20;55.40
25732;DHT22;13585;50.864;4.406;2022-12-18T18:06:54;13.20;55.40
25732;DHT22;13585;50.864;4.406;2022-12-18T18:09:26;13.20;56.00
25732;DHT22;13585;50.864;4.406;2022-12-18T18:15:24;13.30;55.40
25732;DHT22;13585;50.864;4.406;2022-12-18T18:17:52;13.30;55.40
25732;DHT22;13585;50.864;4.406;2022-12-18T18:20:20;13.30;55.40
25732;DHT22;13585;50.864;4.406;2022-12-18T18:23:05;13.30;55.40
25732;DHT22;13585;50.864;4.406;2022-12-18T18:25:43;13.20;55.50
25732;DHT22;13585;50.864;4.406;2022-12-18T18:28:24;13.30;55.40
25732;DHT22;13585;50.864;4.406;2022-12-18T18:36:28;13.20;55.40
25732;DHT22;13585;50.864;4.406;2022-12-18T18:39:01;13.30;55.40
25732;DHT22;13585;50.864;4.406;2022-12-18T18:41:29;13.30;55.50
25732;DHT22;13585;50.864;4.406;2022-12-18T18:43:59;13.30;55.50
25732;DHT22;13585;50.864;4.406;2022-12-18T18:46:32;13.20;55.50
25732;DHT22;13585;50.864;4.406;2022-12-18T18:49:16;13.30;55.50
25732;DHT22;13585;50.864;4.406;2022-12-18T18:51:42;13.30;55.60
25732;DHT22;13585;50.864;4.406;2022-12-18T18:57:37;13.40;55.60
25732;DHT22;13585;50.864;4.406;2022-12-18T19:00:21;13.20;55.50
25732;DHT22;13585;50.864;4.406;2022-12-18T19:02:50;13.30;55.60
25732;DHT22;13585;50.864;4.406;2022-12-18T19:11:46;13.40;55.60
25732;DHT22;13585;50.864;4.406;2022-12-18T19:30:26;13.40;56.40
25732;DHT22;13585;50.864;4.406;2022-12-18T19:33:14;13.40;56.60
25732;DHT22;13585;50.864;4.406;2022-12-18T20:02:17;13.30;57.00
25732;DHT22;13585;50.864;4.406;2022-12-18T20:04:57;13.30;57.10
25732;DHT22;13585;50.864;4.406;2022-12-18T20:07:29;13.30;57.00
25732;DHT22;13585;50.864;4.406;2022-12-18T20:10:02;13.30;57.10
25732;DHT22;13585;50.864;4.406;2022-12-18T20:13:33;13.30;57.10
25732;DHT22;13585;50.864;4.406;2022-12-18T20:16:02;13.40;57.20
25732;DHT22;13585;50.864;4.406;2022-12-18T20:18:29;13.30;57.10
25732;DHT22;13585;50.864;4.406;2022-12-18T20:21:08;13.30;57.10
25732;DHT22;13585;50.864;4.406;2022-12-18T20:23:54;13.30;57.10
25732;DHT22;13585;50.864;4.406;2022-12-18T20:29:07;13.30;57.00
25732;DHT22;13585;50.864;4.406;2022-12-18T20:31:32;13.30;57.00
25732;DHT22;13585;50.864;4.406;2022-12-18T20:33:58;13.30;57.00
25732;DHT22;13585;50.864;4.406;2022-12-18T20:36:24;13.30;57.00
25732;DHT22;13585;50.864;4.406;2022-12-18T20:38:51;13.30;57.00
25732;DHT22;13585;50.864;4.406;2022-12-18T20:41:20;13.30;57.00
25732;DHT22;13585;50.864;4.406;2022-12-18T20:43:46;13.30;56.90
25732;DHT22;13585;50.864;4.406;2022-12-18T20:46:14;13.30;56.90
25732;DHT22;13585;50.864;4.406;2022-12-18T20:48:41;13.20;56.90
25732;DHT22;13585;50.864;4.406;2022-12-18T20:51:10;13.30;56.90
25732;DHT22;13585;50.864;4.406;2022-12-18T20:53:36;13.20;56.80
25732;DHT22;13585;50.864;4.406;2022-12-18T20:56:07;13.30;56.80
25732;DHT22;13585;50.864;4.406;2022-12-18T20:58:33;13.20;56.70
25732;DHT22;13585;50.864;4.406;2022-12-18T21:01:08;13.30;56.80
25732;DHT22;13585;50.864;4.406;2022-12-18T21:03:34;13.20;56.70
25732;DHT22;13585;50.864;4.406;2022-12-18T21:05:59;13.30;56.70
25732;DHT22;13585;50.864;4.406;2022-12-18T21:08:25;13.20;56.70
25732;DHT22;13585;50.864;4.406;2022-12-18T21:10:50;13.20;56.60
25732;DHT22;13585;50.864;4.406;2022-12-18T21:13:17;13.20;56.60
25732;DHT22;13585;50.864;4.406;2022-12-18T21:15:43;13.20;56.60
25732;DHT22;13585;50.864;4.406;2022-12-18T21:18:09;13.20;56.60
25732;DHT22;13585;50.864;4.406;2022-12-18T21:20:34;13.20;56.60
25732;DHT22;13585;50.864;4.406;2022-12-18T21:23:00;13.20;56.50
25732;DHT22;13585;50.864;4.406;2022-12-18T21:25:31;13.20;56.50
25732;DHT22;13585;50.864;4.406;2022-12-18T21:27:56;13.20;56.50
25732;DHT22;13585;50.864;4.406;2022-12-18T21:30:22;13.20;56.50
25732;DHT22;13585;50.864;4.406;2022-12-18T21:32:48;13.20;56.50
25732;DHT22;13585;50.864;4.406;2022-12-18T21:35:13;13.20;56.50
25732;DHT22;13585;50.864;4.406;2022-12-18T21:37:39;13.20;56.40
25732;DHT22;13585;50.864;4.406;2022-12-18T21:40:06;13.20;56.40
25732;DHT22;13585;50.864;4.406;2022-12-18T21:42:32;13.20;57.00
25732;DHT22;13585;50.864;4.406;2022-12-18T21:45:16;13.20;56.40
25732;DHT22;13585;50.864;4.406;2022-12-18T21:47:41;13.20;56.30
25732;DHT22;13585;50.864;4.406;2022-12-18T21:50:07;13.20;56.30
25732;DHT22;13585;50.864;4.406;2022-12-18T21:52:33;13.20;56.30
25732;DHT22;13585;50.864;4.406;2022-12-18T21:55:00;13.20;56.30
25732;DHT22;13585;50.864;4.406;2022-12-18T21:57:26;13.10;56.30
25732;DHT22;13585;50.864;4.406;2022-12-18T21:59:51;13.20;56.30
25732;DHT22;13585;50.864;4.406;2022-12-18T22:02:19;13.10;56.20
25732;DHT22;13585;50.864;4.406;2022-12-18T22:04:46;13.10;56.20
25732;DHT22;13585;50.864;4.406;2022-12-18T22:07:13;13.10;56.20
25732;DHT22;13585;50.864;4.406;2022-12-18T22:09:39;13.10;56.10
25732;DHT22;13585;50.864;4.406;2022-12-18T22:12:05;13.10;56.20
25732;DHT22;13585;50.864;4.406;2022-12-18T22:14:33;13.10;56.10
25732;DHT22;13585;50.864;4.406;2022-12-18T22:16:59;13.10;56.10
25732;DHT22;13585;50.864;4.406;2022-12-18T22:19:25;13.10;56.10
25732;DHT22;13585;50.864;4.406;2022-12-18T22:21:51;13.10;56.10
25732;DHT22;13585;50.864;4.406;2022-12-18T22:24:20;13.10;56.10
25732;DHT22;13585;50.864;4.406;2022-12-18T22:26:47;13.10;56.00
25732;DHT22;13585;50.864;4.406;2022-12-18T22:29:16;13.10;56.00
25732;DHT22;13585;50.864;4.406;2022-12-18T22:32:00;13.10;56.00
25732;DHT22;13585;50.864;4.406;2022-12-18T22:34:26;13.10;56.60
25732;DHT22;13585;50.864;4.406;2022-12-18T22:36:52;13.10;56.00
25732;DHT22;13585;50.864;4.406;2022-12-18T22:39:20;13.10;56.00
25732;DHT22;13585;50.864;4.406;2022-12-18T22:41:46;13.10;56.00
25732;DHT22;13585;50.864;4.406;2022-12-18T22:44:12;13.10;56.00
25732;DHT22;13585;50.864;4.406;2022-12-18T22:46:40;13.10;56.00
25732;DHT22;13585;50.864;4.406;2022-12-18T22:49:07;13.10;56.00
25732;DHT22;13585;50.864;4.406;2022-12-18T22:51:35;13.00;55.90
25732;DHT22;13585;50.864;4.406;2022-12-18T22:54:01;13.10;56.00
25732;DHT22;13585;50.864;4.406;2022-12-18T22:56:27;13.00;55.90
25732;DHT22;13585;50.864;4.406;2022-12-18T22:58:52;13.00;55.90
25732;DHT22;13585;50.864;4.406;2022-12-18T23:01:21;13.00;55.90
25732;DHT22;13585;50.864;4.406;2022-12-18T23:03:47;13.10;55.90
25732;DHT22;13585;50.864;4.406;2022-12-18T23:06:14;13.00;55.80
25732;DHT22;13585;50.864;4.406;2022-12-18T23:08:40;13.00;55.80
25732;DHT22;13585;50.864;4.406;2022-12-18T23:11:06;13.00;55.80
25732;DHT22;13585;50.864;4.406;2022-12-18T23:13:33;13.00;55.80
25732;DHT22;13585;50.864;4.406;2022-12-18T23:15:59;13.00;55.80
25732;DHT22;13585;50.864;4.406;2022-12-18T23:18:24;13.00;55.80
25732;DHT22;13585;50.864;4.406;2022-12-18T23:20:50;13.00;55.80
25732;DHT22;13585;50.864;4.406;2022-12-18T23:23:15;13.00;55.80
25732;DHT22;13585;50.864;4.406;2022-12-18T23:25:41;13.00;55.80
25732;DHT22;13585;50.864;4.406;2022-12-18T23:28:07;13.10;55.80
25732;DHT22;13585;50.864;4.406;2022-12-18T23:30:32;13.00;55.70
25732;DHT22;13585;50.864;4.406;2022-12-18T23:32:58;13.00;55.80
25732;DHT22;13585;50.864;4.406;2022-12-18T23:35:24;13.00;55.80
25732;DHT22;13585;50.864;4.406;2022-12-18T23:37:50;13.00;55.80
25732;DHT22;13585;50.864;4.406;2022-12-18T23:40:15;13.00;55.80
25732;DHT22;13585;50.864;4.406;2022-12-18T23:42:41;13.00;56.40
25732;DHT22;13585;50.864;4.406;2022-12-18T23:45:07;13.00;55.90
25732;DHT22;13585;50.864;4.406;2022-12-18T23:47:33;13.00;55.90
25732;DHT22;13585;50.864;4.406;2022-12-18T23:49:59;13.00;55.90
25732;DHT22;13585;50.864;4.406;2022-12-18T23:52:25;13.00;55.90
25732;DHT22;13585;50.864;4.406;2022-12-18T23:54:50;13.10;56.00
25732;DHT22;13585;50.864;4.406;2022-12-18T23:57:16;13.00;56.00
25732;DHT22;13585;50.864;4.406;2022-12-18T23:59:42;13.00;55.90
